createdAt,value
2017-02-02T00:00:06.273Z,3.77
2017-02-02T00:00:36.291Z,3.75
2017-02-02T00:01:06.331Z,3.84
2017-02-02T00:01:36.360Z,3.89
2017-02-02T00:02:06.387Z,3.74
2017-02-02T00:02:36.430Z,3.8
2017-02-02T00:03:06.451Z,3.77
2017-02-02T00:03:36.489Z,3.81
2017-02-02T00:04:06.812Z,3.78
2017-02-02T00:04:36.544Z,3.77
2017-02-02T00:05:06.575Z,3.75
2017-02-02T00:05:36.604Z,3.75
2017-02-02T00:06:06.482Z,3.81
2017-02-02T00:06:36.661Z,3.8
2017-02-02T00:07:06.694Z,3.8
2017-02-02T00:07:36.725Z,3.72
2017-02-02T00:08:06.613Z,3.81
2017-02-02T00:08:36.783Z,3.77
2017-02-02T00:09:07.065Z,3.74
2017-02-02T00:09:36.852Z,3.68
2017-02-02T00:10:06.881Z,3.67
2017-02-02T00:10:36.915Z,3.67
2017-02-02T00:11:06.937Z,3.78
2017-02-02T00:11:36.969Z,3.71
2017-02-02T00:12:07.001Z,3.71
2017-02-02T00:12:37.035Z,3.77
2017-02-02T00:13:07.055Z,3.63
2017-02-02T00:13:37.091Z,3.72
2017-02-02T00:14:07.421Z,3.67
2017-02-02T00:14:37.154Z,3.71
2017-02-02T00:15:07.187Z,3.68
2017-02-02T00:15:37.213Z,3.7
2017-02-02T00:16:07.246Z,3.7
2017-02-02T00:16:37.276Z,3.67
2017-02-02T00:17:07.312Z,3.8
2017-02-02T00:17:37.334Z,3.8
2017-02-02T00:18:07.368Z,3.77
2017-02-02T00:18:37.398Z,3.72
2017-02-02T00:19:07.432Z,3.81
2017-02-02T00:19:37.457Z,3.78
2017-02-02T00:20:07.491Z,3.81
2017-02-02T00:20:37.517Z,3.72
2017-02-02T00:21:07.550Z,3.8
2017-02-02T00:21:37.578Z,3.81
2017-02-02T00:22:07.501Z,3.72
2017-02-02T00:22:37.645Z,3.78
2017-02-02T00:23:07.674Z,3.78
2017-02-02T00:23:37.726Z,3.81
2017-02-02T00:24:07.732Z,3.78
2017-02-02T00:24:38.065Z,3.75
2017-02-02T00:25:07.795Z,3.78
2017-02-02T00:25:37.827Z,3.8
2017-02-02T00:26:07.712Z,3.84
2017-02-02T00:26:37.892Z,3.75
2017-02-02T00:27:07.911Z,3.8
2017-02-02T00:27:37.948Z,3.75
2017-02-02T00:28:07.980Z,3.88
2017-02-02T00:28:38.013Z,3.78
2017-02-02T00:29:08.039Z,3.82
2017-02-02T00:29:38.321Z,3.78
2017-02-02T00:30:08.104Z,3.77
2017-02-02T00:30:38.134Z,3.86
2017-02-02T00:31:08.016Z,3.86
2017-02-02T00:31:38.209Z,3.77
2017-02-02T00:32:08.075Z,3.78
2017-02-02T00:32:38.261Z,3.78
2017-02-02T00:33:08.284Z,3.8
2017-02-02T00:33:38.319Z,3.78
2017-02-02T00:34:08.196Z,3.8
2017-02-02T00:34:38.629Z,3.86
2017-02-02T00:35:08.410Z,3.82
2017-02-02T00:35:38.432Z,3.74
2017-02-02T00:36:08.467Z,3.78
2017-02-02T00:36:38.505Z,3.81
2017-02-02T00:37:08.532Z,3.86
2017-02-02T00:37:38.564Z,3.78
2017-02-02T00:38:08.465Z,3.78
2017-02-02T00:38:38.625Z,3.74
2017-02-02T00:39:08.656Z,3.72
2017-02-02T00:39:38.686Z,3.78
2017-02-02T00:40:08.716Z,3.78
2017-02-02T00:40:38.748Z,3.78
2017-02-02T00:41:08.628Z,3.78
2017-02-02T00:41:38.811Z,3.72
2017-02-02T00:42:08.837Z,3.78
2017-02-02T00:42:38.875Z,3.84
2017-02-02T00:43:08.751Z,3.78
2017-02-02T00:43:38.931Z,3.77
2017-02-02T00:44:08.810Z,3.72
2017-02-02T00:44:38.992Z,3.72
2017-02-02T00:45:08.882Z,3.8
2017-02-02T00:45:39.053Z,3.7
2017-02-02T00:46:09.078Z,3.84
2017-02-02T00:46:39.117Z,3.77
2017-02-02T00:47:09.153Z,3.75
2017-02-02T00:47:39.183Z,3.84
2017-02-02T00:48:08.908Z,3.7
2017-02-02T00:48:39.236Z,3.81
2017-02-02T00:49:09.120Z,3.77
2017-02-02T00:49:39.309Z,3.75
2017-02-02T00:50:09.529Z,3.8
2017-02-02T00:50:39.355Z,3.77
2017-02-02T00:51:09.391Z,3.8
2017-02-02T00:51:39.419Z,3.82
2017-02-02T00:52:09.301Z,3.8
2017-02-02T00:52:39.484Z,3.81
2017-02-02T00:53:09.511Z,3.81
2017-02-02T00:53:39.544Z,3.75
2017-02-02T00:54:09.425Z,3.81
2017-02-02T00:54:39.603Z,3.74
2017-02-02T00:55:09.597Z,3.8
2017-02-02T00:55:39.663Z,3.84
2017-02-02T00:56:09.550Z,3.72
2017-02-02T00:56:39.725Z,3.7
2017-02-02T00:57:09.763Z,3.68
2017-02-02T00:57:39.791Z,3.68
2017-02-02T00:58:09.674Z,3.64
2017-02-02T00:58:39.847Z,3.64
2017-02-02T00:59:09.887Z,3.6
2017-02-02T00:59:39.909Z,3.71
2017-02-02T01:00:09.943Z,3.7
2017-02-02T01:00:39.971Z,3.59
2017-02-02T01:01:10.002Z,3.57
2017-02-02T01:01:40.032Z,3.57
2017-02-02T01:02:10.059Z,3.56
2017-02-02T01:02:40.095Z,3.6
2017-02-02T01:03:10.126Z,3.53
2017-02-02T01:03:40.157Z,3.53
2017-02-02T01:04:10.221Z,3.57
2017-02-02T01:04:40.211Z,3.59
2017-02-02T01:05:10.102Z,3.59
2017-02-02T01:05:40.282Z,3.62
2017-02-02T01:06:10.315Z,3.52
2017-02-02T01:06:40.336Z,3.6
2017-02-02T01:07:10.368Z,3.54
2017-02-02T01:07:40.396Z,3.54
2017-02-02T01:08:10.283Z,3.52
2017-02-02T01:08:40.463Z,3.56
2017-02-02T01:09:10.485Z,3.53
2017-02-02T01:09:40.518Z,3.53
2017-02-02T01:10:10.547Z,3.56
2017-02-02T01:10:40.883Z,3.53
2017-02-02T01:11:10.613Z,3.45
2017-02-02T01:11:40.642Z,3.44
2017-02-02T01:12:10.520Z,3.44
2017-02-02T01:12:40.705Z,3.45
2017-02-02T01:13:10.734Z,3.53
2017-02-02T01:13:40.766Z,3.46
2017-02-02T01:14:10.646Z,3.52
2017-02-02T01:14:40.823Z,3.49
2017-02-02T01:15:10.854Z,3.54
2017-02-02T01:15:41.133Z,3.44
2017-02-02T01:16:10.911Z,3.52
2017-02-02T01:16:40.946Z,3.54
2017-02-02T01:17:10.974Z,3.52
2017-02-02T01:17:41.007Z,3.54
2017-02-02T01:18:11.049Z,3.57
2017-02-02T01:18:41.070Z,3.63
2017-02-02T01:19:11.105Z,3.52
2017-02-02T01:19:41.125Z,3.54
2017-02-02T01:20:11.159Z,3.59
2017-02-02T01:20:41.544Z,3.63
2017-02-02T01:21:11.223Z,3.56
2017-02-02T01:21:41.251Z,3.62
2017-02-02T01:22:11.282Z,3.6
2017-02-02T01:22:41.307Z,3.6
2017-02-02T01:23:11.338Z,3.6
2017-02-02T01:23:41.369Z,3.56
2017-02-02T01:24:11.401Z,3.6
2017-02-02T01:24:41.434Z,3.6
2017-02-02T01:25:11.465Z,3.67
2017-02-02T01:25:41.494Z,3.67
2017-02-02T01:26:11.535Z,3.68
2017-02-02T01:26:41.555Z,3.64
2017-02-02T01:27:11.585Z,3.71
2017-02-02T01:27:41.619Z,3.68
2017-02-02T01:28:11.648Z,3.7
2017-02-02T01:28:41.680Z,3.7
2017-02-02T01:29:11.706Z,3.74
2017-02-02T01:29:41.740Z,3.78
2017-02-02T01:30:11.768Z,3.74
2017-02-02T01:30:41.801Z,3.75
2017-02-02T01:31:11.833Z,3.7
2017-02-02T01:31:41.857Z,3.7
2017-02-02T01:32:11.886Z,3.75
2017-02-02T01:32:41.919Z,3.84
2017-02-02T01:33:11.956Z,3.8
2017-02-02T01:33:41.988Z,3.75
2017-02-02T01:34:12.018Z,3.78
2017-02-02T01:34:42.042Z,3.74
2017-02-02T01:35:12.085Z,3.78
2017-02-02T01:35:42.104Z,3.77
2017-02-02T01:36:12.389Z,3.84
2017-02-02T01:36:42.169Z,3.81
2017-02-02T01:37:12.202Z,3.78
2017-02-02T01:37:42.226Z,3.74
2017-02-02T01:38:12.112Z,3.75
2017-02-02T01:38:42.289Z,3.81
2017-02-02T01:39:12.326Z,3.8
2017-02-02T01:39:42.350Z,3.78
2017-02-02T01:40:12.385Z,3.82
2017-02-02T01:40:42.412Z,3.82
2017-02-02T01:41:12.745Z,3.88
2017-02-02T01:41:42.469Z,3.8
2017-02-02T01:42:12.357Z,3.84
2017-02-02T01:42:42.535Z,3.8
2017-02-02T01:43:12.564Z,3.81
2017-02-02T01:43:42.597Z,3.77
2017-02-02T01:44:12.630Z,3.77
2017-02-02T01:44:42.657Z,3.84
2017-02-02T01:45:12.693Z,3.86
2017-02-02T01:45:42.716Z,3.88
2017-02-02T01:46:12.997Z,3.88
2017-02-02T01:46:42.777Z,3.92
2017-02-02T01:47:12.810Z,3.88
2017-02-02T01:47:42.838Z,3.86
2017-02-02T01:48:12.727Z,3.9
2017-02-02T01:48:42.909Z,3.89
2017-02-02T01:49:12.930Z,3.89
2017-02-02T01:49:42.959Z,3.82
2017-02-02T01:50:12.992Z,3.92
2017-02-02T01:50:43.028Z,3.86
2017-02-02T01:51:13.064Z,3.88
2017-02-02T01:51:43.088Z,3.89
2017-02-02T01:52:12.970Z,3.89
2017-02-02T01:52:43.150Z,3.88
2017-02-02T01:53:13.186Z,3.89
2017-02-02T01:53:43.209Z,3.86
2017-02-02T01:54:13.237Z,3.96
2017-02-02T01:54:43.268Z,3.93
2017-02-02T01:55:13.151Z,3.86
2017-02-02T01:55:43.330Z,3.89
2017-02-02T01:56:13.362Z,3.81
2017-02-02T01:56:43.388Z,3.93
2017-02-02T01:57:13.276Z,3.86
2017-02-02T01:57:43.464Z,3.92
2017-02-02T01:58:13.486Z,3.92
2017-02-02T01:58:43.517Z,3.89
2017-02-02T01:59:13.550Z,3.81
2017-02-02T01:59:43.575Z,3.89
2017-02-02T02:00:13.611Z,3.88
2017-02-02T02:00:43.637Z,3.82
2017-02-02T02:01:13.521Z,3.93
2017-02-02T02:01:43.857Z,3.82
2017-02-02T02:02:13.735Z,3.92
2017-02-02T02:02:43.798Z,3.84
2017-02-02T02:03:13.798Z,3.86
2017-02-02T02:03:43.836Z,3.88
2017-02-02T02:04:13.847Z,3.89
2017-02-02T02:04:43.885Z,3.9
2017-02-02T02:05:13.766Z,3.88
2017-02-02T02:05:43.958Z,3.81
2017-02-02T02:06:13.827Z,3.88
2017-02-02T02:06:44.310Z,3.89
2017-02-02T02:07:14.032Z,3.8
2017-02-02T02:07:44.081Z,3.88
2017-02-02T02:08:14.103Z,3.9
2017-02-02T02:08:44.128Z,3.88
2017-02-02T02:09:14.180Z,3.88
2017-02-02T02:09:44.189Z,3.89
2017-02-02T02:10:14.074Z,3.86
2017-02-02T02:10:44.249Z,3.9
2017-02-02T02:11:14.285Z,3.81
2017-02-02T02:11:44.562Z,3.8
2017-02-02T02:12:14.348Z,3.81
2017-02-02T02:12:44.375Z,3.82
2017-02-02T02:13:14.291Z,3.8
2017-02-02T02:13:44.444Z,3.82
2017-02-02T02:14:14.465Z,3.78
2017-02-02T02:14:44.497Z,3.86
2017-02-02T02:15:14.526Z,3.86
2017-02-02T02:15:44.561Z,3.81
2017-02-02T02:16:14.445Z,3.82
2017-02-02T02:16:44.618Z,3.89
2017-02-02T02:17:14.656Z,3.86
2017-02-02T02:17:44.675Z,3.8
2017-02-02T02:18:14.566Z,3.78
2017-02-02T02:18:44.739Z,3.81
2017-02-02T02:19:14.777Z,3.84
2017-02-02T02:19:44.808Z,3.86
2017-02-02T02:20:14.839Z,3.82
2017-02-02T02:20:44.872Z,3.81
2017-02-02T02:21:14.900Z,3.86
2017-02-02T02:21:44.927Z,3.9
2017-02-02T02:22:14.959Z,3.84
2017-02-02T02:22:45.000Z,3.81
2017-02-02T02:23:14.877Z,3.74
2017-02-02T02:23:45.053Z,3.78
2017-02-02T02:24:15.083Z,3.78
2017-02-02T02:24:45.115Z,3.81
2017-02-02T02:25:15.145Z,3.81
2017-02-02T02:25:45.175Z,3.84
2017-02-02T02:26:15.201Z,3.8
2017-02-02T02:26:45.260Z,3.77
2017-02-02T02:27:15.573Z,3.8
2017-02-02T02:27:45.297Z,3.77
2017-02-02T02:28:15.326Z,3.74
2017-02-02T02:28:45.362Z,3.8
2017-02-02T02:29:15.389Z,3.81
2017-02-02T02:29:45.417Z,3.75
2017-02-02T02:30:15.451Z,3.78
2017-02-02T02:30:45.486Z,3.77
2017-02-02T02:31:15.517Z,3.81
2017-02-02T02:31:45.543Z,3.75
2017-02-02T02:32:15.871Z,3.82
2017-02-02T02:32:45.602Z,3.78
2017-02-02T02:33:15.633Z,3.75
2017-02-02T02:33:45.659Z,3.77
2017-02-02T02:34:15.707Z,3.8
2017-02-02T02:34:45.762Z,3.82
2017-02-02T02:35:15.756Z,3.75
2017-02-02T02:35:45.788Z,3.9
2017-02-02T02:36:15.821Z,3.77
2017-02-02T02:36:45.856Z,3.77
2017-02-02T02:37:15.880Z,3.77
2017-02-02T02:37:45.911Z,3.82
2017-02-02T02:38:45.967Z,3.81
2017-02-02T02:39:16.001Z,3.81
2017-02-02T02:39:46.031Z,3.8
2017-02-02T02:40:16.066Z,3.89
2017-02-02T02:40:46.095Z,3.77
2017-02-02T02:41:16.127Z,3.74
2017-02-02T02:41:46.159Z,3.78
2017-02-02T02:42:16.188Z,3.75
2017-02-02T02:42:46.209Z,3.81
2017-02-02T02:43:16.247Z,3.77
2017-02-02T02:43:46.285Z,3.77
2017-02-02T02:44:16.305Z,3.71
2017-02-02T02:44:46.346Z,3.71
2017-02-02T02:45:16.368Z,3.84
2017-02-02T02:45:46.400Z,3.78
2017-02-02T02:46:16.428Z,3.8
2017-02-02T02:46:46.461Z,3.7
2017-02-02T02:47:16.347Z,3.77
2017-02-02T02:47:46.828Z,3.8
2017-02-02T02:48:16.406Z,3.78
2017-02-02T02:48:46.579Z,3.77
2017-02-02T02:49:16.613Z,3.77
2017-02-02T02:49:46.644Z,3.77
2017-02-02T02:50:16.677Z,3.81
2017-02-02T02:50:46.707Z,3.78
2017-02-02T02:51:16.747Z,3.78
2017-02-02T02:51:46.763Z,3.78
2017-02-02T02:52:16.830Z,3.77
2017-02-02T02:52:47.128Z,3.77
2017-02-02T02:53:16.862Z,3.78
2017-02-02T02:53:46.887Z,3.78
2017-02-02T02:54:16.920Z,3.78
2017-02-02T02:54:46.946Z,3.74
2017-02-02T02:55:16.978Z,3.8
2017-02-02T02:55:47.015Z,3.78
2017-02-02T02:56:17.037Z,3.81
2017-02-02T02:56:47.068Z,3.77
2017-02-02T02:57:17.107Z,3.74
2017-02-02T02:57:47.132Z,3.82
2017-02-02T02:58:17.170Z,3.8
2017-02-02T02:58:47.202Z,3.8
2017-02-02T02:59:17.079Z,3.78
2017-02-02T02:59:47.259Z,3.81
2017-02-02T03:00:17.293Z,3.74
2017-02-02T03:00:47.318Z,3.86
2017-02-02T03:01:17.348Z,3.77
2017-02-02T03:01:47.380Z,3.78
2017-02-02T03:02:17.410Z,3.81
2017-02-02T03:02:47.438Z,3.78
2017-02-02T03:03:17.823Z,3.78
2017-02-02T03:03:47.499Z,3.75
2017-02-02T03:04:17.389Z,3.75
2017-02-02T03:04:47.563Z,3.74
2017-02-02T03:05:17.588Z,3.77
2017-02-02T03:05:47.623Z,3.82
2017-02-02T03:06:17.510Z,3.72
2017-02-02T03:06:47.690Z,3.77
2017-02-02T03:07:17.570Z,3.77
2017-02-02T03:07:47.746Z,3.77
2017-02-02T03:08:18.023Z,3.75
2017-02-02T03:08:47.808Z,3.81
2017-02-02T03:09:17.693Z,3.77
2017-02-02T03:09:47.871Z,3.78
2017-02-02T03:10:17.905Z,3.71
2017-02-02T03:10:47.935Z,3.74
2017-02-02T03:11:17.967Z,3.77
2017-02-02T03:11:47.990Z,3.7
2017-02-02T03:12:17.874Z,3.77
2017-02-02T03:12:48.054Z,3.64
2017-02-02T03:13:18.079Z,3.74
2017-02-02T03:13:48.111Z,3.81
2017-02-02T03:14:18.143Z,3.74
2017-02-02T03:14:48.176Z,3.68
2017-02-02T03:15:18.204Z,3.8
2017-02-02T03:15:48.233Z,3.7
2017-02-02T03:16:18.259Z,3.67
2017-02-02T03:16:48.294Z,3.67
2017-02-02T03:17:18.329Z,3.68
2017-02-02T03:17:48.353Z,3.7
2017-02-02T03:18:18.240Z,3.75
2017-02-02T03:18:48.665Z,3.75
2017-02-02T03:19:18.448Z,3.72
2017-02-02T03:19:48.483Z,3.81
2017-02-02T03:20:18.512Z,3.74
2017-02-02T03:20:48.538Z,3.81
2017-02-02T03:21:18.569Z,3.68
2017-02-02T03:21:48.602Z,3.77
2017-02-02T03:22:18.487Z,3.7
2017-02-02T03:22:48.514Z,3.74
2017-02-02T03:23:18.733Z,3.71
2017-02-02T03:23:49.171Z,3.77
2017-02-02T03:24:18.763Z,3.7
2017-02-02T03:24:48.786Z,3.7
2017-02-02T03:25:18.820Z,3.64
2017-02-02T03:25:48.849Z,3.7
2017-02-02T03:26:18.875Z,3.68
2017-02-02T03:26:48.905Z,3.63
2017-02-02T03:27:18.793Z,3.71
2017-02-02T03:27:48.971Z,3.71
2017-02-02T03:28:18.996Z,3.72
2017-02-02T03:28:49.030Z,3.71
2017-02-02T03:29:18.916Z,3.71
2017-02-02T03:29:49.096Z,3.77
2017-02-02T03:30:19.123Z,3.7
2017-02-02T03:30:49.152Z,3.56
2017-02-02T03:31:19.038Z,3.68
2017-02-02T03:31:49.212Z,3.67
2017-02-02T03:32:19.094Z,3.53
2017-02-02T03:32:49.272Z,3.54
2017-02-02T03:33:19.306Z,3.7
2017-02-02T03:33:49.332Z,3.53
2017-02-02T03:34:19.707Z,3.56
2017-02-02T03:34:49.401Z,3.67
2017-02-02T03:35:19.281Z,3.64
2017-02-02T03:35:49.461Z,3.72
2017-02-02T03:36:19.490Z,3.71
2017-02-02T03:36:49.516Z,3.6
2017-02-02T03:37:19.547Z,3.68
2017-02-02T03:37:49.595Z,3.62
2017-02-02T03:38:19.608Z,3.62
2017-02-02T03:38:49.640Z,3.68
2017-02-02T03:39:19.974Z,3.64
2017-02-02T03:39:49.703Z,3.71
2017-02-02T03:40:19.736Z,3.68
2017-02-02T03:40:49.762Z,3.67
2017-02-02T03:41:19.653Z,3.68
2017-02-02T03:41:49.825Z,3.67
2017-02-02T03:42:19.863Z,3.7
2017-02-02T03:42:49.884Z,3.7
2017-02-02T03:43:19.914Z,3.71
2017-02-02T03:43:49.945Z,3.72
2017-02-02T03:44:19.980Z,3.68
2017-02-02T03:44:50.007Z,3.64
2017-02-02T03:45:19.891Z,3.68
2017-02-02T03:45:50.076Z,3.63
2017-02-02T03:46:20.109Z,3.62
2017-02-02T03:46:50.130Z,3.62
2017-02-02T03:47:20.198Z,3.57
2017-02-02T03:47:50.213Z,3.63
2017-02-02T03:48:20.225Z,3.62
2017-02-02T03:48:50.251Z,3.67
2017-02-02T03:49:20.284Z,3.62
2017-02-02T03:49:50.317Z,3.6
2017-02-02T03:50:20.346Z,3.54
2017-02-02T03:50:50.371Z,3.68
2017-02-02T03:51:20.407Z,3.64
2017-02-02T03:51:50.443Z,3.59
2017-02-02T03:52:20.468Z,3.6
2017-02-02T03:52:50.497Z,3.63
2017-02-02T03:53:20.528Z,3.53
2017-02-02T03:53:50.559Z,3.56
2017-02-02T03:54:20.591Z,3.5
2017-02-02T03:54:50.920Z,3.62
2017-02-02T03:55:20.648Z,3.59
2017-02-02T03:55:50.681Z,3.59
2017-02-02T03:56:20.724Z,3.54
2017-02-02T03:56:50.755Z,3.56
2017-02-02T03:57:20.771Z,3.52
2017-02-02T03:57:50.803Z,3.57
2017-02-02T03:58:20.833Z,3.5
2017-02-02T03:58:50.715Z,3.59
2017-02-02T03:59:20.746Z,3.54
2017-02-02T03:59:51.223Z,3.64
2017-02-02T04:00:20.949Z,3.56
2017-02-02T04:00:50.980Z,3.6
2017-02-02T04:01:20.867Z,3.57
2017-02-02T04:01:51.043Z,3.6
2017-02-02T04:02:21.078Z,3.62
2017-02-02T04:02:51.115Z,3.54
2017-02-02T04:03:20.992Z,3.54
2017-02-02T04:03:51.163Z,3.59
2017-02-02T04:04:21.050Z,3.56
2017-02-02T04:04:51.485Z,3.6
2017-02-02T04:05:21.262Z,3.52
2017-02-02T04:05:51.290Z,3.56
2017-02-02T04:06:21.319Z,3.59
2017-02-02T04:06:51.352Z,3.54
2017-02-02T04:07:21.378Z,3.59
2017-02-02T04:07:51.413Z,3.53
2017-02-02T04:08:21.295Z,3.59
2017-02-02T04:08:51.473Z,3.56
2017-02-02T04:09:21.503Z,3.62
2017-02-02T04:09:51.541Z,3.54
2017-02-02T04:10:21.570Z,3.53
2017-02-02T04:10:51.601Z,3.59
2017-02-02T04:11:21.623Z,3.6
2017-02-02T04:11:51.657Z,3.6
2017-02-02T04:12:21.688Z,3.62
2017-02-02T04:12:51.719Z,3.6
2017-02-02T04:13:21.751Z,3.62
2017-02-02T04:13:51.782Z,3.62
2017-02-02T04:14:21.805Z,3.63
2017-02-02T04:14:51.840Z,3.59
2017-02-02T04:15:21.727Z,3.63
2017-02-02T04:15:51.903Z,3.63
2017-02-02T04:16:21.928Z,3.68
2017-02-02T04:16:51.962Z,3.59
2017-02-02T04:17:21.999Z,3.62
2017-02-02T04:17:52.025Z,3.59
2017-02-02T04:18:22.058Z,3.54
2017-02-02T04:18:52.083Z,3.56
2017-02-02T04:19:22.118Z,3.54
2017-02-02T04:19:52.146Z,3.54
2017-02-02T04:20:22.424Z,3.53
2017-02-02T04:20:52.209Z,3.57
2017-02-02T04:21:22.239Z,3.62
2017-02-02T04:21:52.268Z,3.54
2017-02-02T04:22:22.325Z,3.52
2017-02-02T04:22:52.331Z,3.59
2017-02-02T04:23:22.362Z,3.57
2017-02-02T04:23:52.392Z,3.56
2017-02-02T04:24:22.275Z,3.53
2017-02-02T04:24:52.455Z,3.53
2017-02-02T04:25:22.585Z,3.44
2017-02-02T04:25:52.365Z,3.45
2017-02-02T04:26:22.395Z,3.46
2017-02-02T04:26:52.572Z,3.46
2017-02-02T04:27:22.457Z,3.46
2017-02-02T04:27:52.634Z,3.42
2017-02-02T04:28:22.523Z,3.44
2017-02-02T04:28:52.703Z,3.5
2017-02-02T04:29:22.728Z,3.49
2017-02-02T04:29:52.758Z,3.46
2017-02-02T04:30:23.035Z,3.39
2017-02-02T04:30:52.828Z,3.46
2017-02-02T04:31:22.850Z,3.49
2017-02-02T04:31:52.879Z,3.46
2017-02-02T04:32:22.903Z,3.44
2017-02-02T04:32:52.942Z,3.45
2017-02-02T04:33:22.972Z,3.49
2017-02-02T04:33:53.002Z,3.44
2017-02-02T04:34:23.035Z,3.42
2017-02-02T04:34:53.065Z,3.44
2017-02-02T04:35:23.398Z,3.5
2017-02-02T04:35:53.127Z,3.46
2017-02-02T04:36:23.154Z,3.42
2017-02-02T04:36:53.181Z,3.44
2017-02-02T04:37:23.217Z,3.41
2017-02-02T04:37:53.246Z,3.44
2017-02-02T04:38:23.272Z,3.41
2017-02-02T04:38:53.304Z,3.33
2017-02-02T04:39:23.337Z,3.39
2017-02-02T04:39:53.371Z,3.37
2017-02-02T04:40:23.401Z,3.41
2017-02-02T04:40:53.429Z,3.41
2017-02-02T04:41:23.316Z,3.41
2017-02-02T04:41:53.489Z,3.42
2017-02-02T04:42:23.521Z,3.41
2017-02-02T04:42:53.547Z,3.37
2017-02-02T04:43:23.431Z,3.37
2017-02-02T04:43:53.610Z,3.3
2017-02-02T04:44:23.492Z,3.33
2017-02-02T04:44:53.676Z,3.34
2017-02-02T04:45:23.557Z,3.23
2017-02-02T04:45:54.090Z,3.25
2017-02-02T04:46:23.764Z,3.23
2017-02-02T04:46:53.795Z,3.3
2017-02-02T04:47:23.714Z,3.26
2017-02-02T04:47:53.868Z,3.26
2017-02-02T04:48:23.887Z,3.31
2017-02-02T04:48:53.917Z,3.23
2017-02-02T04:49:23.946Z,3.26
2017-02-02T04:49:53.975Z,3.19
2017-02-02T04:50:23.856Z,3.28
2017-02-02T04:50:54.291Z,3.3
2017-02-02T04:51:23.924Z,3.19
2017-02-02T04:51:54.100Z,3.19
2017-02-02T04:52:24.131Z,3.19
2017-02-02T04:52:54.161Z,3.22
2017-02-02T04:53:23.897Z,3.2
2017-02-02T04:53:54.228Z,3.22
2017-02-02T04:54:24.250Z,3.25
2017-02-02T04:54:54.282Z,3.2
2017-02-02T04:55:24.315Z,3.2
2017-02-02T04:55:54.593Z,3.2
2017-02-02T04:56:24.373Z,3.16
2017-02-02T04:56:54.413Z,3.16
2017-02-02T04:57:24.436Z,3.2
2017-02-02T04:57:54.466Z,3.2
2017-02-02T04:58:24.496Z,3.13
2017-02-02T04:58:54.534Z,3.17
2017-02-02T04:59:24.558Z,3.23
2017-02-02T04:59:54.589Z,3.2
2017-02-02T05:00:24.620Z,3.16
2017-02-02T05:00:54.647Z,3.22
2017-02-02T05:01:24.678Z,3.16
2017-02-02T05:01:54.710Z,3.12
2017-02-02T05:02:24.738Z,3.17
2017-02-02T05:02:54.772Z,3.19
2017-02-02T05:03:24.809Z,3.2
2017-02-02T05:03:54.830Z,3.08
2017-02-02T05:04:24.856Z,3.16
2017-02-02T05:04:54.895Z,3.2
2017-02-02T05:05:24.927Z,3.22
2017-02-02T05:05:54.978Z,3.12
2017-02-02T05:06:24.984Z,3.15
2017-02-02T05:06:55.015Z,3.08
2017-02-02T05:07:24.904Z,3.13
2017-02-02T05:07:55.073Z,3.19
2017-02-02T05:08:25.112Z,3.25
2017-02-02T05:08:55.137Z,3.19
2017-02-02T05:09:25.162Z,3.17
2017-02-02T05:09:55.198Z,3.2
2017-02-02T05:10:25.226Z,3.19
2017-02-02T05:10:55.260Z,3.2
2017-02-02T05:11:25.497Z,3.2
2017-02-02T05:11:55.321Z,3.2
2017-02-02T05:12:25.349Z,3.25
2017-02-02T05:12:55.381Z,3.23
2017-02-02T05:13:25.413Z,3.2
2017-02-02T05:13:55.446Z,3.12
2017-02-02T05:14:25.469Z,3.23
2017-02-02T05:14:55.494Z,3.12
2017-02-02T05:15:25.530Z,3.16
2017-02-02T05:15:55.559Z,3.19
2017-02-02T05:16:25.848Z,3.08
2017-02-02T05:16:55.619Z,3.16
2017-02-02T05:17:25.510Z,3.13
2017-02-02T05:17:55.687Z,3.2
2017-02-02T05:18:25.563Z,3.16
2017-02-02T05:18:55.747Z,3.13
2017-02-02T05:19:25.783Z,3.15
2017-02-02T05:19:55.806Z,3.23
2017-02-02T05:20:25.839Z,3.23
2017-02-02T05:20:55.866Z,3.16
2017-02-02T05:21:25.896Z,3.19
2017-02-02T05:21:55.929Z,3.17
2017-02-02T05:22:25.805Z,3.19
2017-02-02T05:22:55.990Z,3.19
2017-02-02T05:23:26.023Z,3.13
2017-02-02T05:23:56.047Z,3.1
2017-02-02T05:24:25.933Z,3.08
2017-02-02T05:24:56.109Z,3.08
2017-02-02T05:25:25.991Z,3.17
2017-02-02T05:25:56.170Z,3.16
2017-02-02T05:26:26.196Z,3.17
2017-02-02T05:26:56.234Z,3.22
2017-02-02T05:27:26.259Z,3.15
2017-02-02T05:27:56.289Z,3.12
2017-02-02T05:28:26.327Z,3.17
2017-02-02T05:28:56.351Z,3.12
2017-02-02T05:29:26.389Z,3.16
2017-02-02T05:29:56.412Z,3.22
2017-02-02T05:30:26.438Z,3.15
2017-02-02T05:30:56.469Z,3.1
2017-02-02T05:31:26.500Z,3.16
2017-02-02T05:31:56.789Z,3.16
2017-02-02T05:32:26.564Z,3.1
2017-02-02T05:32:56.590Z,3.16
2017-02-02T05:33:26.622Z,3.19
2017-02-02T05:33:56.653Z,3.22
2017-02-02T05:34:26.688Z,3.12
2017-02-02T05:34:56.708Z,3.15
2017-02-02T05:35:26.752Z,3.12
2017-02-02T05:35:56.629Z,3.12
2017-02-02T05:36:26.808Z,3.08
2017-02-02T05:36:57.092Z,3.12
2017-02-02T05:37:26.723Z,3.13
2017-02-02T05:37:56.895Z,3.13
2017-02-02T05:38:26.782Z,3.12
2017-02-02T05:38:56.966Z,3.07
2017-02-02T05:39:26.985Z,3.13
2017-02-02T05:39:57.018Z,3.12
2017-02-02T05:40:27.056Z,3.13
2017-02-02T05:40:57.073Z,3.16
2017-02-02T05:41:27.105Z,3.1
2017-02-02T05:41:57.153Z,3.16
2017-02-02T05:42:27.175Z,3.13
2017-02-02T05:42:57.203Z,3.16
2017-02-02T05:43:27.228Z,3.16
2017-02-02T05:43:57.266Z,3.15
2017-02-02T05:44:27.300Z,3.13
2017-02-02T05:44:57.315Z,3.2
2017-02-02T05:45:27.348Z,3.19
2017-02-02T05:45:57.388Z,3.12
2017-02-02T05:46:27.408Z,3.12
2017-02-02T05:46:57.443Z,3.22
2017-02-02T05:47:27.585Z,3.12
2017-02-02T05:47:57.505Z,3.2
2017-02-02T05:48:27.533Z,3.16
2017-02-02T05:48:57.571Z,3.04
2017-02-02T05:49:27.596Z,3.16
2017-02-02T05:49:57.633Z,3.19
2017-02-02T05:50:27.510Z,3.12
2017-02-02T05:50:57.692Z,3.19
2017-02-02T05:51:27.575Z,3.15
2017-02-02T05:51:57.747Z,3.16
2017-02-02T05:52:28.078Z,3.23
2017-02-02T05:52:57.805Z,3.1
2017-02-02T05:53:27.837Z,3.19
2017-02-02T05:53:57.873Z,3.17
2017-02-02T05:54:27.895Z,3.08
2017-02-02T05:54:57.926Z,3.17
2017-02-02T05:55:27.959Z,3.19
2017-02-02T05:55:57.987Z,3.2
2017-02-02T05:56:28.018Z,3.12
2017-02-02T05:56:58.051Z,3.12
2017-02-02T05:57:28.084Z,3.19
2017-02-02T05:57:58.111Z,3.12
2017-02-02T05:58:28.136Z,3.19
2017-02-02T05:58:58.165Z,3.07
2017-02-02T05:59:27.921Z,3.16
2017-02-02T05:59:58.087Z,3.17
2017-02-02T06:00:28.107Z,3.2
2017-02-02T06:00:58.294Z,3.19
2017-02-02T06:01:28.322Z,3.12
2017-02-02T06:01:58.353Z,3.13
2017-02-02T06:02:28.380Z,3.12
2017-02-02T06:02:58.659Z,3.15
2017-02-02T06:03:28.443Z,3.12
2017-02-02T06:03:58.469Z,3.05
2017-02-02T06:04:28.358Z,3.07
2017-02-02T06:04:58.532Z,3.07
2017-02-02T06:05:28.569Z,3.07
2017-02-02T06:05:58.592Z,3.05
2017-02-02T06:06:28.477Z,3.05
2017-02-02T06:06:58.662Z,3.02
2017-02-02T06:07:28.686Z,2.97
2017-02-02T06:07:58.967Z,3.04
2017-02-02T06:08:28.745Z,3.05
2017-02-02T06:08:58.783Z,3.04
2017-02-02T06:09:28.817Z,3.05
2017-02-02T06:09:58.837Z,3.02
2017-02-02T06:10:28.868Z,3.01
2017-02-02T06:10:58.899Z,3.04
2017-02-02T06:11:28.929Z,3.08
2017-02-02T06:11:58.964Z,3.04
2017-02-02T06:12:28.838Z,3.01
2017-02-02T06:12:59.016Z,3.08
2017-02-02T06:13:28.904Z,3.08
2017-02-02T06:13:59.082Z,2.99
2017-02-02T06:14:29.121Z,2.99
2017-02-02T06:14:59.139Z,3.07
2017-02-02T06:15:29.177Z,3.02
2017-02-02T06:15:59.200Z,3.05
2017-02-02T06:16:29.235Z,3.05
2017-02-02T06:16:59.265Z,3.05
2017-02-02T06:17:29.295Z,3.1
2017-02-02T06:17:59.325Z,3.13
2017-02-02T06:18:29.349Z,3.07
2017-02-02T06:18:59.234Z,3.1
2017-02-02T06:19:29.409Z,3.01
2017-02-02T06:19:59.445Z,3.15
2017-02-02T06:20:29.468Z,3.07
2017-02-02T06:20:59.504Z,3.17
2017-02-02T06:21:29.534Z,3.15
2017-02-02T06:21:59.567Z,3.12
2017-02-02T06:22:29.447Z,3.1
2017-02-02T06:22:59.628Z,3.02
2017-02-02T06:23:29.661Z,2.99
2017-02-02T06:23:59.691Z,3.07
2017-02-02T06:24:29.711Z,3.02
2017-02-02T06:24:59.747Z,3.04
2017-02-02T06:25:29.778Z,3.1
2017-02-02T06:25:59.799Z,3.05
2017-02-02T06:26:29.687Z,3.02
2017-02-02T06:26:59.874Z,3.01
2017-02-02T06:27:29.897Z,3.05
2017-02-02T06:27:59.928Z,3.05
2017-02-02T06:28:30.256Z,3.16
2017-02-02T06:28:59.988Z,3.07
2017-02-02T06:29:29.726Z,3.07
2017-02-02T06:30:00.060Z,3.07
2017-02-02T06:30:30.077Z,3.07
2017-02-02T06:31:00.108Z,3.02
2017-02-02T06:31:30.141Z,3.08
2017-02-02T06:32:00.171Z,3.04
2017-02-02T06:32:30.204Z,3.12
2017-02-02T06:33:00.235Z,3.01
2017-02-02T06:33:30.508Z,3.13
2017-02-02T06:34:00.302Z,3.04
2017-02-02T06:34:30.325Z,3.07
2017-02-02T06:35:00.358Z,3.02
2017-02-02T06:35:30.378Z,3.08
2017-02-02T06:36:00.415Z,3.1
2017-02-02T06:36:30.452Z,3.1
2017-02-02T06:37:00.472Z,3.15
2017-02-02T06:37:30.500Z,3.08
2017-02-02T06:38:00.533Z,3.1
2017-02-02T06:38:30.916Z,3.05
2017-02-02T06:39:00.594Z,3.01
2017-02-02T06:39:30.627Z,2.99
2017-02-02T06:40:00.655Z,3.02
2017-02-02T06:40:30.537Z,2.97
2017-02-02T06:41:00.709Z,3.05
2017-02-02T06:41:30.752Z,2.99
2017-02-02T06:42:00.777Z,2.95